createdAt,value
2023-04-02T00:03:21.916Z,16.23
2023-04-02T00:08:38.526Z,16.21
2023-04-02T00:13:44.667Z,16.24
2023-04-02T00:18:50.773Z,16.22
2023-04-02T00:23:55.855Z,16.22
2023-04-02T00:29:01.737Z,16.23
2023-04-02T00:34:08.679Z,16.23
2023-04-02T00:39:16.459Z,16.23
2023-04-02T00:44:22.210Z,16.23
2023-04-02T00:49:30.943Z,16.22
2023-04-02T00:54:40.949Z,16.21
2023-04-02T00:59:50.111Z,16.22
2023-04-02T01:04:55.513Z,16.21
2023-04-02T01:10:14.945Z,16.21
2023-04-02T01:15:21.982Z,16.21
2023-04-02T01:20:40.398Z,16.21
2023-04-02T01:25:49.254Z,16.20
2023-04-02T01:30:56.321Z,16.19
2023-04-02T01:36:06.892Z,16.19
2023-04-02T01:41:16.894Z,16.18
2023-04-02T01:46:28.582Z,16.18
2023-04-02T01:51:34.909Z,16.17
2023-04-02T01:56:40.345Z,16.17
2023-04-02T02:01:48.184Z,16.16
2023-04-02T02:06:53.281Z,16.15
2023-04-02T02:11:59.086Z,16.15
2023-04-02T02:17:03.948Z,16.14
2023-04-02T02:22:11.016Z,16.14
2023-04-02T02:27:35.226Z,16.13
2023-04-02T02:32:41.794Z,16.15
2023-04-02T02:37:48.139Z,16.14
2023-04-02T02:42:55.339Z,16.13
2023-04-02T02:48:01.934Z,16.12
2023-04-02T02:53:21.780Z,16.12
2023-04-02T02:58:27.169Z,16.12
2023-04-02T03:03:33.801Z,16.11
2023-04-02T03:08:42.861Z,16.10
2023-04-02T03:13:49.694Z,16.10
2023-04-02T03:18:57.298Z,16.10
2023-04-02T03:24:04.142Z,16.09
2023-04-02T03:29:14.454Z,16.08
2023-04-02T03:34:22.123Z,16.08
2023-04-02T03:39:31.797Z,16.08
2023-04-02T03:44:39.649Z,16.07
2023-04-02T03:49:47.349Z,16.06
2023-04-02T03:54:53.606Z,16.05
2023-04-02T04:00:05.367Z,16.06
2023-04-02T04:05:21.076Z,16.05
2023-04-02T04:10:26.680Z,16.06
2023-04-02T04:15:33.721Z,16.04
2023-04-02T04:20:45.807Z,16.03
2023-04-02T04:25:57.621Z,16.03
2023-04-02T04:31:06.886Z,16.03
2023-04-02T04:36:18.956Z,16.03
2023-04-02T04:41:25.096Z,16.02
2023-04-02T04:46:32.624Z,16.01
2023-04-02T04:51:39.692Z,16.01
2023-04-02T04:56:47.855Z,16.01
2023-04-02T05:01:59.324Z,16.00
2023-04-02T05:07:08.930Z,16.00
2023-04-02T05:12:18.958Z,16.00
2023-04-02T05:17:26.421Z,16.00
2023-04-02T05:22:38.890Z,15.98
2023-04-02T05:27:48.858Z,15.99
2023-04-02T05:32:57.059Z,15.97
2023-04-02T05:38:02.231Z,15.97
2023-04-02T05:43:09.249Z,15.96
2023-04-02T05:48:17.895Z,15.95
2023-04-02T05:53:25.242Z,15.95
2023-04-02T05:58:36.842Z,15.94
2023-04-02T06:03:46.785Z,15.93
2023-04-02T06:08:54.814Z,15.94
2023-04-02T06:13:59.953Z,15.93
2023-04-02T06:19:05.726Z,15.93
2023-04-02T06:24:15.324Z,15.94
2023-04-02T06:29:25.372Z,15.97
2023-04-02T06:34:31.415Z,16.03
2023-04-02T06:39:35.902Z,16.10
2023-04-02T06:44:40.476Z,16.18
2023-04-02T06:49:47.576Z,16.35
2023-04-02T06:54:52.431Z,16.57
2023-04-02T06:59:57.158Z,16.70
2023-04-02T07:05:03.299Z,16.73
2023-04-02T07:10:09.905Z,16.77
2023-04-02T07:15:17.221Z,16.84
2023-04-02T07:20:27.253Z,16.84
2023-04-02T07:25:32.110Z,16.94
2023-04-02T07:30:37.002Z,17.04
2023-04-02T07:35:42.031Z,17.07
2023-04-02T07:40:46.797Z,17.08
2023-04-02T07:45:51.874Z,17.12
2023-04-02T07:50:56.752Z,17.22
2023-04-02T07:56:02.620Z,17.34
2023-04-02T08:01:16.361Z,17.32
2023-04-02T08:06:21.579Z,17.27
2023-04-02T08:11:26.710Z,17.25
2023-04-02T08:16:44.123Z,17.26
2023-04-02T08:21:51.441Z,17.22
2023-04-02T08:26:56.995Z,17.23
2023-04-02T08:32:01.997Z,17.26
2023-04-02T08:37:07.515Z,17.27
2023-04-02T08:42:20.218Z,17.27
2023-04-02T08:47:26.395Z,17.27
2023-04-02T08:52:32.842Z,17.25
2023-04-02T08:57:43.671Z,17.24
2023-04-02T09:02:52.999Z,17.23
2023-04-02T09:07:59.530Z,17.25
2023-04-02T09:13:09.961Z,17.26
2023-04-02T09:18:15.759Z,17.24
2023-04-02T09:23:21.301Z,17.25
2023-04-02T09:28:26.764Z,17.26
2023-04-02T09:33:45.141Z,17.23
2023-04-02T09:38:59.455Z,17.24
2023-04-02T09:44:14.075Z,17.21
2023-04-02T09:49:19.926Z,17.23
2023-04-02T09:54:26.174Z,17.20
2023-04-02T09:59:30.991Z,17.20
2023-04-02T10:04:37.077Z,17.20
2023-04-02T10:09:42.098Z,17.18
2023-04-02T10:14:48.984Z,17.16
2023-04-02T10:19:56.265Z,17.19
2023-04-02T10:25:01.830Z,17.17
2023-04-02T10:30:13.708Z,17.17
2023-04-02T10:35:22.388Z,17.15
2023-04-02T10:40:29.164Z,17.14
2023-04-02T10:45:39.515Z,17.13
2023-04-02T10:50:49.751Z,17.13
2023-04-02T10:55:56.685Z,17.10
2023-04-02T11:01:02.936Z,17.09
2023-04-02T11:06:12.223Z,17.11
2023-04-02T11:11:18.121Z,17.08
2023-04-02T11:16:22.788Z,17.09
2023-04-02T11:21:54.842Z,17.09
2023-04-02T11:27:07.732Z,17.09
2023-04-02T11:32:25.507Z,17.05
2023-04-02T11:37:35.171Z,17.07
2023-04-02T11:42:40.705Z,17.04
2023-04-02T11:48:07.989Z,17.03
2023-04-02T11:53:20.845Z,17.05
2023-04-02T11:58:49.423Z,17.05
2023-04-02T12:04:02.734Z,17.04
2023-04-02T12:09:15.770Z,17.04
2023-04-02T12:14:42.643Z,17.02
2023-04-02T12:19:49.375Z,17.01
2023-04-02T12:24:56.555Z,16.98
2023-04-02T12:30:13.101Z,16.97
2023-04-02T12:35:27.310Z,16.95
2023-04-02T12:40:32.163Z,16.92
2023-04-02T12:45:37.560Z,16.92
2023-04-02T12:50:42.319Z,16.88
2023-04-02T12:55:48.725Z,16.86
2023-04-02T13:00:53.619Z,16.85
2023-04-02T13:05:58.663Z,16.82
2023-04-02T13:11:04.443Z,16.81
2023-04-02T13:16:25.570Z,16.79
2023-04-02T13:21:31.862Z,16.78
2023-04-02T13:26:36.552Z,16.77
2023-04-02T13:31:41.761Z,16.76
2023-04-02T13:36:46.786Z,16.74
2023-04-02T13:41:52.479Z,16.72
2023-04-02T13:46:57.280Z,16.71
2023-04-02T13:52:04.657Z,16.69
2023-04-02T13:57:10.315Z,16.69
2023-04-02T14:02:17.714Z,16.67
2023-04-02T14:07:27.820Z,16.67
2023-04-02T14:12:36.376Z,16.65
2023-04-02T14:17:48.099Z,16.63
2023-04-02T14:23:00.489Z,16.62
2023-04-02T14:28:09.847Z,16.58
2023-04-02T14:33:19.743Z,16.57
2023-04-02T14:38:27.427Z,16.54
2023-04-02T14:43:33.420Z,16.52
2023-04-02T14:48:48.583Z,16.51
2023-04-02T14:53:57.873Z,16.48
2023-04-02T14:59:08.069Z,16.46
2023-04-02T15:04:14.423Z,16.46
2023-04-02T15:09:21.630Z,16.47
2023-04-02T15:14:28.686Z,16.45
2023-04-02T15:19:33.429Z,16.43
2023-04-02T15:24:42.904Z,16.40
2023-04-02T15:29:49.362Z,16.41
2023-04-02T15:34:58.719Z,16.40
2023-04-02T15:40:19.351Z,16.39
2023-04-02T15:45:30.160Z,16.37
2023-04-02T15:50:44.071Z,16.36
2023-04-02T15:55:50.767Z,16.35
2023-04-02T16:01:03.701Z,16.33
2023-04-02T16:06:25.474Z,16.31
2023-04-02T16:11:30.223Z,16.31
2023-04-02T16:16:35.779Z,16.28
2023-04-02T16:21:43.946Z,16.27
2023-04-02T16:26:54.164Z,16.26
2023-04-02T16:32:03.344Z,16.25
2023-04-02T16:37:12.626Z,16.24
2023-04-02T16:42:21.710Z,16.22
2023-04-02T16:47:37.476Z,16.22
2023-04-02T16:52:47.925Z,16.21
2023-04-02T16:57:58.920Z,16.19
2023-04-02T17:03:12.902Z,16.18
2023-04-02T17:08:21.282Z,16.19
2023-04-02T17:13:29.466Z,16.16
2023-04-02T17:18:34.805Z,16.16
2023-04-02T17:23:55.368Z,16.13
2023-04-02T17:29:02.352Z,16.14
2023-04-02T17:34:13.021Z,16.11
2023-04-02T17:39:22.262Z,16.12
2023-04-02T17:44:45.594Z,16.10
2023-04-02T17:49:57.515Z,16.10
2023-04-02T17:55:10.642Z,16.08
2023-04-02T18:00:21.922Z,16.08
2023-04-02T18:05:28.990Z,16.07
2023-04-02T18:10:37.360Z,16.06
2023-04-02T18:15:50.804Z,16.05
2023-04-02T18:21:04.343Z,16.05
2023-04-02T18:26:13.022Z,16.03
2023-04-02T18:31:25.351Z,16.01
2023-04-02T18:36:38.331Z,16.01
2023-04-02T18:41:51.070Z,16.00
2023-04-02T18:46:57.318Z,15.98
2023-04-02T18:52:03.709Z,15.95
2023-04-02T18:57:12.279Z,15.95
2023-04-02T19:02:32.021Z,15.95
2023-04-02T19:07:39.975Z,15.94
2023-04-02T19:12:45.225Z,15.94
2023-04-02T19:17:56.037Z,15.92
2023-04-02T19:23:07.720Z,15.92
2023-04-02T19:28:19.438Z,15.91
2023-04-02T19:33:34.081Z,15.91
2023-04-02T19:38:49.377Z,15.88
2023-04-02T19:43:54.624Z,15.88
2023-04-02T19:49:03.599Z,15.85
2023-04-02T19:54:08.709Z,15.85
2023-04-02T20:04:21.255Z,15.83
2023-04-02T20:09:26.390Z,15.82
2023-04-02T20:14:31.205Z,15.81
2023-04-02T20:19:36.144Z,15.80
2023-04-02T20:24:42.255Z,15.79
2023-04-02T20:29:47.775Z,15.78
2023-04-02T20:34:53.848Z,15.78
2023-04-02T20:39:58.544Z,15.77
2023-04-02T20:45:05.877Z,15.77
2023-04-02T20:50:11.822Z,15.74
2023-04-02T20:55:16.850Z,15.74
2023-04-02T21:00:22.395Z,15.72
2023-04-02T21:05:27.090Z,15.72
2023-04-02T21:10:32.059Z,15.71
2023-04-02T21:15:42.256Z,15.70
2023-04-02T21:20:56.128Z,15.70
2023-04-02T21:26:01.206Z,15.68
2023-04-02T21:31:06.545Z,15.69
2023-04-02T21:36:12.182Z,15.66
2023-04-02T21:41:17.421Z,15.66
2023-04-02T21:46:23.299Z,15.65
2023-04-02T21:51:28.808Z,15.64
2023-04-02T21:56:35.310Z,15.63
2023-04-02T22:01:40.739Z,15.62
2023-04-02T22:06:46.001Z,15.62
2023-04-02T22:11:53.711Z,15.60
2023-04-02T22:16:59.002Z,15.59
2023-04-02T22:22:04.042Z,15.60
2023-04-02T22:27:08.784Z,15.58
2023-04-02T22:32:13.324Z,15.56
2023-04-02T22:37:18.033Z,15.55
2023-04-02T22:42:23.004Z,15.54
2023-04-02T22:47:27.750Z,15.54
2023-04-02T22:52:32.915Z,15.52
2023-04-02T22:57:37.795Z,15.52
2023-04-02T23:02:43.017Z,15.50
2023-04-02T23:07:47.899Z,15.49
2023-04-02T23:12:52.884Z,15.48
2023-04-02T23:17:57.612Z,15.46
2023-04-02T23:23:02.447Z,15.45
2023-04-02T23:28:07.512Z,15.44
2023-04-02T23:33:12.272Z,15.44
2023-04-02T23:38:16.962Z,15.44
2023-04-02T23:43:21.344Z,15.41
2023-04-02T23:48:26.322Z,15.40
2023-04-02T23:53:30.974Z,15.40
2023-04-02T23:58:35.557Z,15.40
